Time;durP1;ratioP1;P1;durP2;ratioP2;P2;SDS_P1;SDS_P2;PMS_P1;PMS_P2;Temp;Humidity;BMP_temperature;BMP_pressure;BME280_temperature;BME280_humidity;BME280_pressure;Samples;Min_cycle;Max_cycle;Signal;HPM_P1;HPM_P2
2022/08/15 00:00:15;;;;;;;10.98;9.95;;;;;;;23.97;51.56;100060.16;4990732;28;20941;-86
2022/08/15 00:02:43;;;;;;;11.18;9.52;;;;;;;23.92;51.97;100057.16;4989091;28;20060;-87
2022/08/15 00:05:10;;;;;;;10.27;9.27;;;;;;;23.91;52.17;100050.03;4996856;28;20483;-86
2022/08/15 00:07:36;;;;;;;10.75;9.65;;;;;;;23.88;52.14;100060.44;4979307;28;20165;-87
2022/08/15 00:10:03;;;;;;;10.70;9.70;;;;;;;23.78;53.06;100055.22;4987540;28;20428;-85
2022/08/15 00:12:28;;;;;;;10.85;9.75;;;;;;;23.75;53.29;100051.03;4995352;28;20468;-86
2022/08/15 00:14:54;;;;;;;11.10;9.82;;;;;;;23.75;52.92;100064.59;4990475;28;20053;-86
2022/08/15 00:17:20;;;;;;;11.00;9.80;;;;;;;23.61;53.23;100076.22;5003791;28;20457;-85
2022/08/15 00:19:47;;;;;;;11.73;10.32;;;;;;;23.55;53.93;100075.06;4994432;28;20400;-87
2022/08/15 00:22:17;;;;;;;10.23;9.23;;;;;;;23.49;54.34;100075.81;4984371;28;20030;-87
2022/08/15 00:24:44;;;;;;;11.10;9.73;;;;;;;23.55;54.29;100071.53;4989584;28;20026;-87
2022/08/15 00:27:09;;;;;;;11.73;10.25;;;;;;;23.49;54.00;100062.22;4974566;28;20025;-87
2022/08/15 00:29:36;;;;;;;10.55;9.55;;;;;;;23.41;54.51;100070.44;4983057;28;20105;-86
2022/08/15 00:32:06;;;;;;;10.43;9.43;;;;;;;23.48;53.84;100076.81;4988300;28;20030;-85
2022/08/15 00:34:31;;;;;;;10.73;9.63;;;;;;;23.40;54.45;100073.31;4990376;28;20029;-86
2022/08/15 00:36:57;;;;;;;10.45;9.40;;;;;;;23.44;54.41;100080.06;4981375;28;20022;-86
2022/08/15 00:39:25;;;;;;;11.85;10.43;;;;;;;23.49;54.21;100080.38;4998068;28;20081;-87
2022/08/15 00:41:52;;;;;;;10.63;9.57;;;;;;;23.44;53.91;100080.91;4985656;28;20031;-87
2022/08/15 00:44:23;;;;;;;10.70;9.65;;;;;;;23.51;52.90;100091.91;4980849;28;20104;-85
2022/08/15 00:46:55;;;;;;;11.98;10.25;;;;;;;23.55;52.41;100090.53;4982824;28;20037;-86
2022/08/15 00:49:22;;;;;;;11.25;9.70;;;;;;;23.53;52.10;100084.41;4985870;28;20042;-88
2022/08/15 00:52:08;;;;;;;11.30;10.18;;;;;;;23.59;51.23;100084.56;4985770;28;20089;-86
2022/08/15 00:54:57;;;;;;;10.38;9.35;;;;;;;23.63;49.76;100100.50;5000633;28;20093;-86
2022/08/15 00:57:27;;;;;;;8.88;8.05;;;;;;;23.60;47.66;100086.25;4995142;28;20030;-85
2022/08/15 00:59:57;;;;;;;9.15;8.25;;;;;;;23.59;47.73;100084.56;5003282;28;20049;-85
2022/08/15 01:02:29;;;;;;;11.95;8.02;;;;;;;23.68;46.88;100092.69;4986646;28;20027;-86
2022/08/15 01:04:55;;;;;;;15.68;8.00;;;;;;;23.67;47.21;100083.69;4997318;28;20045;-86
2022/08/15 01:07:22;;;;;;;10.05;7.60;;;;;;;23.67;46.21;100086.41;4994550;28;20092;-86
2022/08/15 01:09:49;;;;;;;8.18;7.32;;;;;;;23.68;45.48;100090.81;4989649;28;20038;-86
2022/08/15 01:12:18;;;;;;;7.50;6.40;;;;;;;23.65;45.24;100091.16;4987963;28;20034;-86
2022/08/15 01:14:48;;;;;;;8.80;6.57;;;;;;;23.66;45.10;100090.16;4985301;28;20023;-85
2022/08/15 01:17:15;;;;;;;7.35;6.47;;;;;;;23.65;44.60;100085.72;4996184;28;20034;-86
2022/08/15 01:19:49;;;;;;;7.00;6.30;;;;;;;23.63;44.73;100081.50;4989164;28;20035;-86
2022/08/15 01:22:36;;;;;;;6.72;6.03;;;;;;;23.58;44.50;100082.03;4989482;28;20033;-86
2022/08/15 01:25:15;;;;;;;7.13;6.07;;;;;;;23.50;44.37;100080.22;5000705;28;20054;-85
2022/08/15 01:27:46;;;;;;;10.23;5.75;;;;;;;23.47;44.37;100086.00;4989043;28;20030;-86
2022/08/15 01:30:16;;;;;;;6.45;5.82;;;;;;;23.42;44.50;100082.13;5005639;28;20120;-87
2022/08/15 01:32:42;;;;;;;6.35;5.70;;;;;;;23.31;44.15;100077.94;4985287;28;20037;-86
2022/08/15 01:35:09;;;;;;;6.30;5.50;;;;;;;23.33;44.46;100084.91;4983667;28;20498;-86
2022/08/15 01:37:38;;;;;;;6.30;5.38;;;;;;;23.33;44.36;100086.78;4999614;28;20099;-87
2022/08/15 01:40:26;;;;;;;5.90;5.32;;;;;;;23.26;44.26;100080.38;4990610;28;20470;-87
2022/08/15 01:42:53;;;;;;;7.72;5.07;;;;;;;23.22;44.21;100090.72;4982348;28;20062;-87
2022/08/15 01:45:22;;;;;;;6.80;4.88;;;;;;;23.19;44.16;100090.25;4990571;28;20030;-86
2022/08/15 01:48:05;;;;;;;9.00;5.20;;;;;;;23.17;43.96;100079.56;4985635;28;20087;-85
2022/08/15 01:50:40;;;;;;;6.47;4.65;;;;;;;23.13;44.35;100090.97;5006383;28;20033;-86
2022/08/15 01:53:14;;;;;;;5.10;4.50;;;;;;;23.09;43.95;100088.59;4995430;28;20066;-86
2022/08/15 01:56:03;;;;;;;5.30;4.80;;;;;;;23.07;43.84;100081.63;4987732;28;20038;-85
2022/08/15 01:58:29;;;;;;;6.43;4.53;;;;;;;23.02;43.48;100078.63;5001305;28;20034;-86
2022/08/15 02:01:08;;;;;;;4.57;4.15;;;;;;;23.02;43.53;100086.75;4991087;28;20088;-87
2022/08/15 02:03:34;;;;;;;4.88;4.38;;;;;;;23.03;43.58;100081.19;4997475;28;20046;-86
2022/08/15 02:06:05;;;;;;;5.72;4.57;;;;;;;23.00;43.58;100084.22;5007366;28;20498;-86
2022/08/15 02:08:31;;;;;;;5.00;4.60;;;;;;;22.93;43.71;100071.53;5025416;28;20061;-86
2022/08/15 02:10:57;;;;;;;6.07;4.40;;;;;;;22.96;43.33;100079.34;5007589;28;20077;-87
2022/08/15 02:13:24;;;;;;;6.85;4.55;;;;;;;22.97;43.34;100081.03;5007277;28;20070;-87
2022/08/15 02:15:50;;;;;;;5.93;4.10;;;;;;;22.97;43.51;100089.16;5000378;28;20027;-86
2022/08/15 02:18:15;;;;;;;7.13;4.40;;;;;;;22.94;43.60;100082.22;4995150;28;20031;-87
2022/08/15 02:20:41;;;;;;;4.47;4.07;;;;;;;22.93;43.71;100074.25;4991795;28;20049;-86
2022/08/15 02:23:07;;;;;;;5.05;4.28;;;;;;;22.94;43.70;100084.09;4986128;28;20116;-86
2022/08/15 02:25:33;;;;;;;4.93;4.20;;;;;;;22.94;43.80;100073.22;4998466;28;20049;-84
2022/08/15 02:27:58;;;;;;;5.90;4.28;;;;;;;22.89;43.69;100073.72;4979381;28;20027;-86
2022/08/15 02:30:26;;;;;;;6.40;4.38;;;;;;;22.92;43.53;100084.28;4978219;28;20037;-86
2022/08/15 02:32:52;;;;;;;5.13;4.35;;;;;;;22.91;43.61;100082.59;4987425;28;20037;-86
2022/08/15 02:35:17;;;;;;;6.75;4.57;;;;;;;22.93;43.36;100082.41;4999192;28;20018;-86
2022/08/15 02:37:46;;;;;;;5.50;3.97;;;;;;;22.96;43.40;100088.31;4998339;28;20026;-84
2022/08/15 02:40:14;;;;;;;5.18;4.30;;;;;;;22.93;43.50;100085.13;5011645;28;20554;-86
2022/08/15 02:42:42;;;;;;;6.10;3.95;;;;;;;22.94;43.45;100087.63;4993930;28;20026;-85
2022/08/15 02:45:10;;;;;;;7.05;4.30;;;;;;;22.95;43.19;100091.19;4983107;28;20027;-87
2022/08/15 02:47:43;;;;;;;5.22;4.18;;;;;;;22.94;43.45;100089.50;4973066;28;20428;-86
2022/08/15 02:50:09;;;;;;;5.80;4.10;;;;;;;22.94;43.56;100081.38;4994239;28;20403;-85
2022/08/15 02:52:40;;;;;;;8.52;4.78;;;;;;;22.88;43.47;100082.91;5003580;28;20056;-86
2022/08/15 02:55:07;;;;;;;6.75;4.43;;;;;;;22.85;43.57;100084.09;5005308;28;20030;-87
2022/08/15 02:57:32;;;;;;;5.38;4.07;;;;;;;22.83;43.82;100090.72;4987679;28;20023;-86
2022/08/15 02:59:57;;;;;;;6.25;3.95;;;;;;;22.79;43.58;100087.50;4986099;28;20031;-86
2022/08/15 03:02:23;;;;;;;4.82;4.30;;;;;;;22.71;43.86;100079.41;4978733;28;20045;-86
2022/08/15 03:04:49;;;;;;;6.07;4.18;;;;;;;22.68;43.98;100096.03;4976985;28;20081;-86
2022/08/15 03:07:14;;;;;;;4.55;4.15;;;;;;;22.63;44.21;100095.72;4987223;28;20027;-86
2022/08/15 03:09:39;;;;;;;6.30;4.45;;;;;;;22.54;44.39;100094.88;5005578;28;20034;-86
2022/08/15 03:12:05;;;;;;;5.32;4.57;;;;;;;22.46;44.96;100096.78;4988082;28;20034;-85
2022/08/15 03:14:31;;;;;;;5.57;4.30;;;;;;;22.30;45.27;100087.66;5006710;28;20121;-86
2022/08/15 03:16:57;;;;;;;5.75;4.60;;;;;;;22.28;45.62;100094.25;4984127;28;20019;-86
2022/08/15 03:19:25;;;;;;;5.28;4.22;;;;;;;22.15;45.67;100089.34;4985679;28;20026;-86
2022/08/15 03:21:51;;;;;;;5.18;4.30;;;;;;;22.11;46.41;100085.25;4982034;28;20030;-85
2022/08/15 03:24:19;;;;;;;6.82;3.90;;;;;;;22.05;46.55;100075.13;4973553;28;20113;-86
2022/08/15 03:26:46;;;;;;;6.10;4.25;;;;;;;22.01;46.58;100087.31;4979202;28;20064;-86
2022/08/15 03:29:16;;;;;;;8.02;3.75;;;;;;;21.92;46.68;100091.88;4975688;28;20027;-86
2022/08/15 03:31:43;;;;;;;8.52;4.47;;;;;;;21.87;46.54;100089.69;4979979;28;20030;-86
2022/08/15 03:34:10;;;;;;;6.60;4.60;;;;;;;21.84;47.22;100103.56;4974432;28;20035;-86
2022/08/15 03:36:36;;;;;;;7.30;4.20;;;;;;;21.84;47.21;100091.88;4991603;28;20031;-86
2022/08/15 03:39:03;;;;;;;6.30;4.55;;;;;;;21.84;47.59;100117.13;5004140;28;20571;-86
2022/08/15 03:41:29;;;;;;;5.50;4.15;;;;;;;21.84;47.80;100121.69;4988104;28;20039;-87
2022/08/15 03:43:54;;;;;;;7.38;4.70;;;;;;;21.82;48.34;100115.56;4984557;28;20041;-85
2022/08/15 03:46:21;;;;;;;5.45;4.10;;;;;;;21.77;48.82;100110.66;4987335;28;20030;-87
2022/08/15 03:48:51;;;;;;;7.72;4.28;;;;;;;21.73;49.18;100112.00;4984986;28;20038;-86
2022/08/15 03:51:19;;;;;;;5.32;4.38;;;;;;;21.75;49.06;100112.72;4988339;28;20503;-86
2022/08/15 03:53:49;;;;;;;7.07;5.00;;;;;;;21.71;49.84;100103.22;4988812;28;20534;-86
2022/08/15 03:56:19;;;;;;;5.68;4.78;;;;;;;21.68;50.29;100103.56;4990678;28;20031;-86
2022/08/15 03:58:45;;;;;;;6.68;4.47;;;;;;;21.72;50.43;100096.78;4982562;28;20034;-86
2022/08/15 04:01:17;;;;;;;7.40;4.75;;;;;;;21.71;50.45;100095.09;4975395;28;20031;-85
2022/08/15 04:03:44;;;;;;;5.05;4.30;;;;;;;21.69;50.33;100090.84;4977902;28;20078;-85
2022/08/15 04:06:10;;;;;;;7.10;4.47;;;;;;;21.71;51.02;100096.97;4989711;28;20030;-85
2022/08/15 04:08:36;;;;;;;7.93;4.40;;;;;;;21.67;51.37;100096.44;4973044;28;20027;-86
2022/08/15 04:11:05;;;;;;;5.85;4.60;;;;;;;21.65;51.28;100090.34;4977446;28;20026;-86
2022/08/15 04:13:31;;;;;;;5.22;4.72;;;;;;;21.66;51.82;100086.63;4980807;28;20436;-87
2022/08/15 04:15:59;;;;;;;8.15;4.53;;;;;;;21.70;51.86;100090.72;4975592;28;20082;-86
2022/08/15 04:18:26;;;;;;;6.60;3.90;;;;;;;21.69;52.06;100093.56;4983683;28;20117;-86
2022/08/15 04:20:54;;;;;;;7.25;4.10;;;;;;;21.64;52.53;100091.34;4981790;28;20030;-86
2022/08/15 04:23:19;;;;;;;5.82;4.32;;;;;;;21.60;52.70;100090.84;4992202;28;20022;-86
2022/08/15 04:25:45;;;;;;;10.10;4.95;;;;;;;21.61;53.01;100094.41;4985857;28;20022;-85
2022/08/15 04:28:14;;;;;;;6.65;4.50;;;;;;;21.65;52.74;100098.47;4987104;28;20073;-85
2022/08/15 04:30:41;;;;;;;6.97;4.38;;;;;;;21.67;52.72;100096.44;4984769;28;20341;-85
2022/08/15 04:33:25;;;;;;;5.90;4.32;;;;;;;21.68;52.64;100098.13;4977617;28;20061;-85
2022/08/15 04:36:00;;;;;;;5.15;4.53;;;;;;;21.68;53.28;100097.28;4982137;28;20070;-86
2022/08/15 04:38:25;;;;;;;5.57;4.47;;;;;;;21.67;53.63;100090.19;5001385;28;20068;-86
2022/08/15 04:40:54;;;;;;;6.45;4.18;;;;;;;21.66;53.88;100102.03;4993544;28;20030;-86
2022/08/15 04:43:21;;;;;;;7.90;4.15;;;;;;;21.69;53.99;100107.09;4985666;28;20046;-85
2022/08/15 04:45:46;;;;;;;6.70;4.13;;;;;;;21.70;53.59;100101.53;4986548;28;20036;-85
2022/08/15 04:48:15;;;;;;;5.43;3.92;;;;;;;21.76;53.60;100110.84;4997646;28;20069;-85
2022/08/15 04:50:44;;;;;;;5.05;4.15;;;;;;;21.80;53.65;100106.78;4997773;28;20126;-85
2022/08/15 04:53:11;;;;;;;4.55;3.70;;;;;;;21.81;53.83;100113.88;5007175;28;20034;-83
2022/08/15 04:55:41;;;;;;;8.38;4.00;;;;;;;21.85;53.52;100116.09;4988584;28;20053;-85
2022/08/15 04:58:07;;;;;;;14.95;4.70;;;;;;;21.86;53.84;100106.09;5012427;28;20026;-86
2022/08/15 05:00:32;;;;;;;5.78;3.83;;;;;;;21.82;54.25;100116.44;4997002;28;20034;-86
2022/08/15 05:02:59;;;;;;;5.03;3.85;;;;;;;21.87;54.19;100118.66;5009147;28;20440;-87
2022/08/15 05:05:25;;;;;;;6.20;3.67;;;;;;;21.88;54.13;100117.63;5013986;28;20025;-87
2022/08/15 05:07:50;;;;;;;5.05;4.00;;;;;;;21.91;53.59;100125.44;5004023;28;20073;-87
2022/08/15 05:10:16;;;;;;;6.50;3.95;;;;;;;21.91;54.21;100124.59;4986641;28;20046;-85
2022/08/15 05:12:42;;;;;;;5.50;3.92;;;;;;;21.91;54.31;100113.75;4995059;28;20049;-86
2022/08/15 05:15:09;;;;;;;7.65;4.15;;;;;;;21.89;54.39;100122.03;5002233;28;20034;-86
2022/08/15 05:17:34;;;;;;;9.27;4.00;;;;;;;21.92;53.93;100127.09;5005993;28;20434;-87
2022/08/15 05:20:00;;;;;;;5.90;3.63;;;;;;;21.96;54.33;100133.88;4985761;28;20033;-86
2022/08/15 05:22:25;;;;;;;6.53;3.70;;;;;;;21.97;53.82;100134.72;4998213;28;20084;-86
2022/08/15 05:24:50;;;;;;;7.78;4.10;;;;;;;21.99;54.48;100143.56;5013775;28;20193;-86
2022/08/15 05:27:15;;;;;;;7.05;4.05;;;;;;;21.98;54.32;100141.84;4999518;28;20396;-86
2022/08/15 05:29:42;;;;;;;5.85;3.85;;;;;;;21.96;55.03;100146.59;4992858;28;20030;-86
2022/08/15 05:32:09;;;;;;;5.93;3.83;;;;;;;21.93;54.39;100144.22;5012139;28;20046;-86
2022/08/15 05:34:34;;;;;;;7.65;3.90;;;;;;;21.91;54.74;100140.84;5009609;28;20483;-86
2022/08/15 05:37:01;;;;;;;6.65;4.10;;;;;;;21.89;55.10;100149.09;4987347;28;20034;-86
2022/08/15 05:39:30;;;;;;;6.70;4.03;;;;;;;21.94;55.04;100148.59;4996851;28;20058;-87
2022/08/15 05:42:05;;;;;;;8.60;4.00;;;;;;;21.96;54.46;100144.72;5002099;28;20227;-86
2022/08/15 05:44:44;;;;;;;6.05;3.90;;;;;;;21.96;54.88;100152.00;5013618;28;20403;-87
2022/08/15 05:47:24;;;;;;;5.00;3.85;;;;;;;22.01;54.61;100136.09;5014686;28;20096;-88
2022/08/15 05:49:53;;;;;;;6.13;3.80;;;;;;;22.00;55.02;100139.81;4989828;28;20041;-88
2022/08/15 05:52:48;;;;;;;6.45;4.35;;;;;;;22.04;54.38;100150.16;4983300;28;20039;-88
2022/08/15 05:55:14;;;;;;;6.18;4.20;;;;;;;22.02;55.72;100149.44;4987869;28;20399;-88
2022/08/15 05:58:01;;;;;;;7.00;4.30;;;;;;;22.08;55.44;100156.91;4997546;28;20109;-87
2022/08/15 06:00:28;;;;;;;8.30;4.30;;;;;;;22.10;55.43;100160.28;4993800;28;20561;-87
2022/08/15 06:03:00;;;;;;;6.03;4.20;;;;;;;22.16;55.80;100145.28;5005700;28;20061;-87
2022/08/15 06:05:31;;;;;;;6.50;4.03;;;;;;;22.31;55.62;100153.56;4993221;28;20034;-88
2022/08/15 06:08:00;;;;;;;6.63;4.50;;;;;;;22.36;55.50;100153.88;4999026;28;20033;-86
2022/08/15 06:11:11;;;;;;;8.43;5.35;;;;;;;22.42;54.91;100153.22;4980575;28;20056;-87
2022/08/15 06:13:45;;;;;;;6.30;4.20;;;;;;;22.40;55.61;100147.09;4981903;28;20088;-86
2022/08/15 06:16:20;;;;;;;6.72;3.70;;;;;;;22.40;55.90;100152.50;5007364;28;20061;-85
2022/08/15 06:18:46;;;;;;;6.55;3.88;;;;;;;22.45;55.80;100152.00;4998956;28;20133;-87
2022/08/15 06:21:30;;;;;;;4.65;3.75;;;;;;;22.48;55.58;100151.66;5000020;28;20030;-88
2022/08/15 06:24:21;;;;;;;5.63;3.80;;;;;;;22.53;55.21;100154.69;5010932;28;20119;-86
2022/08/15 06:27:14;;;;;;;7.82;3.80;;;;;;;22.58;54.62;100153.19;4994651;28;20039;-88
2022/08/15 06:30:07;;;;;;;8.50;4.85;;;;;;;22.53;55.17;100152.88;5005239;28;20045;-87
2022/08/15 06:33:01;;;;;;;5.90;3.95;;;;;;;22.56;55.04;100165.22;5023774;28;20021;-87
2022/08/15 06:35:30;;;;;;;7.22;5.20;;;;;;;22.53;54.79;100161.00;5010562;28;20058;-87
2022/08/15 06:38:29;;;;;;;4.10;3.70;;;;;;;22.57;54.34;100165.06;5015584;28;20053;-87
2022/08/15 06:41:09;;;;;;;9.20;3.50;;;;;;;22.64;54.68;100162.50;4997228;28;20133;-86
2022/08/15 06:43:34;;;;;;;5.60;3.40;;;;;;;22.69;53.34;100170.09;4986630;28;20030;-86
2022/08/15 06:46:03;;;;;;;4.80;3.38;;;;;;;22.61;54.42;100176.38;5013737;28;20031;-89
2022/08/15 06:48:37;;;;;;;4.97;3.47;;;;;;;22.67;54.01;100170.28;4993249;28;20010;-88
2022/08/15 06:51:06;;;;;;;5.90;3.92;;;;;;;22.66;54.30;100163.19;4993237;28;20027;-87
2022/08/15 06:53:40;;;;;;;8.05;3.85;;;;;;;22.71;54.12;100165.38;4986996;28;20081;-89
2022/08/15 06:56:17;;;;;;;5.13;3.45;;;;;;;22.80;54.12;100157.03;4991794;28;20035;-87
2022/08/15 06:58:56;;;;;;;3.97;3.47;;;;;;;22.82;54.53;100163.13;4984163;28;20040;-88
2022/08/15 07:01:31;;;;;;;6.22;3.45;;;;;;;22.91;54.59;100154.97;4991613;28;20037;-88
2022/08/15 07:04:19;;;;;;;8.32;5.00;;;;;;;23.02;53.19;100158.16;4985398;28;20049;-89
2022/08/15 07:07:07;;;;;;;5.30;3.70;;;;;;;22.93;54.10;100153.78;4986314;28;20034;-88
2022/08/15 07:09:47;;;;;;;6.40;4.40;;;;;;;22.92;53.89;100164.84;4987461;28;20038;-89
2022/08/15 07:12:31;;;;;;;6.80;4.15;;;;;;;22.85;54.00;100159.22;4988888;28;20101;-89
2022/08/15 07:15:04;;;;;;;4.40;4.00;;;;;;;22.85;54.23;100162.78;4989762;28;20046;-89
2022/08/15 07:17:42;;;;;;;7.10;4.18;;;;;;;22.88;54.51;100157.00;4976446;28;20098;-90
2022/08/15 07:20:08;;;;;;;10.15;4.63;;;;;;;22.84;55.37;100150.22;4976849;28;20529;-88
2022/08/15 07:22:34;;;;;;;7.47;4.18;;;;;;;22.95;55.22;100150.91;5001807;28;20585;-89
2022/08/15 07:25:00;;;;;;;5.28;4.20;;;;;;;23.14;54.66;100150.50;5011560;28;20010;-89
2022/08/15 07:27:30;;;;;;;7.03;4.82;;;;;;;23.21;54.53;100151.50;4992103;28;20105;-87
2022/08/15 07:30:00;;;;;;;5.00;4.38;;;;;;;23.45;54.12;100160.50;4989077;28;20034;-90
2022/08/15 07:32:28;;;;;;;6.63;4.28;;;;;;;23.72;53.59;100151.91;4977932;28;20033;-87
2022/08/15 07:34:59;;;;;;;7.78;4.45;;;;;;;24.10;52.77;100157.41;4990295;28;20121;-87
2022/08/15 07:37:32;;;;;;;7.05;4.40;;;;;;;24.48;51.66;100154.72;4986941;28;20054;-89
2022/08/15 07:40:03;;;;;;;5.70;4.18;;;;;;;24.86;51.25;100155.50;4983263;28;20499;-88
2022/08/15 07:42:37;;;;;;;7.57;4.95;;;;;;;25.49;49.45;100147.75;4989438;28;20030;-87
2022/08/15 07:45:07;;;;;;;6.65;4.57;;;;;;;26.27;48.30;100155.09;4989722;28;20034;-90
2022/08/15 07:47:34;;;;;;;7.32;4.40;;;;;;;27.34;45.87;100153.94;4994284;28;20103;-89
2022/08/15 07:50:12;;;;;;;5.18;4.00;;;;;;;28.32;46.00;100162.56;4990493;28;20026;-89
2022/08/15 07:52:38;;;;;;;6.65;4.57;;;;;;;28.55;41.94;100162.16;4992720;28;20074;-89
2022/08/15 07:55:18;;;;;;;7.32;4.20;;;;;;;28.30;43.50;100162.81;4980240;28;20031;-91
2022/08/15 07:57:59;;;;;;;5.22;4.18;;;;;;;28.29;43.08;100173.94;4983268;28;20049;-89
2022/08/15 08:00:34;;;;;;;6.43;4.50;;;;;;;28.92;41.79;100168.84;4987452;28;20053;-88
2022/08/15 08:03:25;;;;;;;9.32;5.22;;;;;;;29.66;40.95;100164.84;4988463;28;20154;-89
2022/08/15 08:05:56;;;;;;;7.28;5.03;;;;;;;29.58;39.65;100177.97;4985273;28;20065;-88
2022/08/15 08:08:38;;;;;;;6.65;5.20;;;;;;;28.77;41.46;100176.47;5001850;28;20082;-88
2022/08/15 08:11:12;;;;;;;7.80;4.65;;;;;;;28.02;43.55;100175.81;4981663;28;20033;-89
2022/08/15 08:13:40;;;;;;;5.85;4.85;;;;;;;27.42;43.92;100177.50;4988088;28;20026;-87
2022/08/15 08:16:18;;;;;;;9.02;6.72;;;;;;;26.92;44.92;100179.50;4985494;28;20543;-89
2022/08/15 08:18:54;;;;;;;8.05;5.65;;;;;;;26.35;46.78;100178.66;4989713;28;20159;-89
2022/08/15 08:21:26;;;;;;;8.18;5.28;;;;;;;26.06;47.90;100185.09;4989559;28;20030;-88
2022/08/15 08:23:56;;;;;;;6.77;4.93;;;;;;;25.75;48.40;100185.34;4993331;28;20031;-88
2022/08/15 08:26:35;;;;;;;6.93;4.93;;;;;;;25.40;49.02;100185.16;4982960;28;20054;-88
2022/08/15 08:29:23;;;;;;;9.10;5.05;;;;;;;25.10;50.59;100192.53;4989440;28;20054;-88
2022/08/15 08:32:27;;;;;;;7.40;5.53;;;;;;;24.90;49.84;100188.63;5000402;28;20034;-88
2022/08/15 08:35:08;;;;;;;7.35;5.38;;;;;;;24.69;51.53;100175.75;4988660;28;20038;-87
2022/08/15 08:37:54;;;;;;;6.05;5.30;;;;;;;24.54;52.40;100175.75;4993567;28;20014;-87
2022/08/15 08:43:33;;;;;;;7.57;5.32;;;;;;;24.26;53.14;100189.91;5001653;28;20041;-87
2022/08/15 08:46:10;;;;;;;9.05;5.47;;;;;;;24.25;53.07;100195.53;4999585;28;20030;-88
2022/08/15 08:48:48;;;;;;;9.77;5.45;;;;;;;24.19;53.94;100198.97;4990067;28;20034;-89
2022/08/15 08:51:38;;;;;;;14.82;5.25;;;;;;;24.23;54.15;100195.69;4989707;28;20034;-89
2022/08/15 08:54:14;;;;;;;6.82;5.25;;;;;;;24.32;53.91;100197.31;4983432;28;20133;-90
2022/08/15 08:56:45;;;;;;;9.10;5.60;;;;;;;24.38;54.05;100193.06;4986455;28;20035;-88
2022/08/15 08:59:24;;;;;;;8.02;5.88;;;;;;;24.39;53.33;100207.50;4985819;28;20443;-89
2022/08/15 09:02:12;;;;;;;9.13;5.78;;;;;;;24.48;53.45;100200.97;4981727;28;20034;-88
2022/08/15 09:04:44;;;;;;;10.73;5.40;;;;;;;24.46;54.07;100200.31;4994350;28;20031;-88
2022/08/15 09:07:16;;;;;;;10.55;5.78;;;;;;;24.49;55.00;100211.66;4983551;28;20109;-88
2022/08/15 09:09:43;;;;;;;9.98;5.50;;;;;;;24.42;56.23;100207.16;4986697;28;20030;-88
2022/08/15 09:15:17;;;;;;;8.82;6.38;;;;;;;24.28;54.62;100198.72;4975812;28;20554;-90
2022/08/15 09:17:47;;;;;;;9.43;5.75;;;;;;;24.30;55.81;100202.09;4980779;28;20033;-87
2022/08/15 09:20:34;;;;;;;10.43;5.97;;;;;;;24.47;55.56;100207.44;4981635;28;20041;-87
2022/08/15 09:23:00;;;;;;;11.20;6.63;;;;;;;24.41;55.10;100200.00;4987817;28;20156;-86
2022/08/15 09:25:29;;;;;;;9.25;5.20;;;;;;;24.49;55.29;100205.38;4991220;28;20058;-87
2022/08/15 09:28:16;;;;;;;8.70;5.80;;;;;;;24.84;53.88;100204.69;4982188;28;20304;-88
2022/08/15 09:30:45;;;;;;;9.23;5.75;;;;;;;25.04;52.46;100204.13;4978618;28;20031;-88
2022/08/15 09:33:53;;;;;;;8.77;5.72;;;;;;;25.12;52.73;100206.78;4984424;28;20030;-85
2022/08/15 09:36:30;;;;;;;7.28;5.50;;;;;;;25.09;52.57;100201.72;4929484;29;20114;-85
2022/08/15 09:38:55;;;;;;;11.55;7.18;;;;;;;25.21;52.52;100197.50;4925471;29;20622;-86
2022/08/15 09:41:23;;;;;;;8.80;5.63;;;;;;;25.39;52.45;100201.72;4926610;29;20110;-86
2022/08/15 09:44:21;;;;;;;8.13;6.22;;;;;;;25.61;51.21;100202.59;4921075;29;20303;-86
2022/08/15 09:47:08;;;;;;;6.85;5.70;;;;;;;25.87;50.96;100199.38;4918579;29;20069;-86
2022/08/15 09:50:17;;;;;;;8.75;5.72;;;;;;;26.24;50.39;100204.56;4933327;29;20032;-87
2022/08/15 09:53:03;;;;;;;8.55;5.88;;;;;;;26.35;49.75;100213.28;4921472;29;20043;-87
2022/08/15 09:55:36;;;;;;;8.02;5.75;;;;;;;26.19;49.10;100207.03;4924678;29;20475;-90
2022/08/15 09:58:24;;;;;;;8.45;5.93;;;;;;;26.08;50.25;100202.97;4921776;29;20047;-86
2022/08/15 10:01:07;;;;;;;6.82;6.10;;;;;;;26.10;50.14;100204.66;4931314;29;20040;-86
2022/08/15 10:03:44;;;;;;;8.68;5.60;;;;;;;26.21;49.52;100204.97;4927647;29;20063;-86
2022/08/15 10:06:29;;;;;;;6.55;5.55;;;;;;;26.16;50.05;100206.59;4923900;29;20071;-85
2022/08/15 10:08:54;;;;;;;9.38;5.55;;;;;;;25.98;50.06;100213.34;4928958;29;20421;-87
2022/08/15 10:11:31;;;;;;;9.77;5.70;;;;;;;25.89;50.09;100214.50;4967511;28;20492;-85
2022/08/15 10:14:05;;;;;;;8.63;5.75;;;;;;;25.72;51.09;100208.41;4970012;28;20398;-86
2022/08/15 10:16:36;;;;;;;11.75;6.57;;;;;;;25.80;51.02;100213.78;4966358;28;20069;-87
2022/08/15 10:19:09;;;;;;;7.93;5.32;;;;;;;25.73;50.44;100212.81;4969240;28;20035;-87
2022/08/15 10:21:37;;;;;;;10.50;6.15;;;;;;;25.56;51.26;100214.09;4970618;28;20054;-87
2022/08/15 10:24:21;;;;;;;10.32;6.22;;;;;;;25.46;51.62;100214.38;4982698;28;20092;-86
2022/08/15 10:27:09;;;;;;;6.53;5.40;;;;;;;25.52;51.75;100210.06;4994621;28;20057;-86
2022/08/15 10:29:49;;;;;;;8.93;6.07;;;;;;;25.46;52.01;100219.00;4989629;28;20046;-87
2022/08/15 10:32:35;;;;;;;9.18;5.45;;;;;;;25.51;52.24;100219.25;4988067;28;20134;-86
2022/08/15 10:35:20;;;;;;;8.88;7.00;;;;;;;25.53;51.44;100220.75;4995697;28;20041;-87
2022/08/15 10:38:00;;;;;;;9.73;7.05;;;;;;;25.49;51.91;100227.59;4997370;28;20038;-85
2022/08/15 10:40:45;;;;;;;10.63;6.30;;;;;;;25.47;52.06;100226.13;4995775;28;20039;-85
2022/08/15 10:43:29;;;;;;;9.90;5.50;;;;;;;25.45;52.68;100217.28;4997181;28;20156;-85
2022/08/15 10:46:28;;;;;;;8.07;5.78;;;;;;;25.47;51.78;100220.69;5006229;28;20082;-85
2022/08/15 10:49:18;;;;;;;6.88;6.10;;;;;;;25.41;52.36;100221.41;5005611;28;20038;-85
2022/08/15 10:52:19;;;;;;;7.78;6.18;;;;;;;25.36;52.21;100219.28;4994805;28;20114;-86
2022/08/15 10:55:07;;;;;;;7.30;5.97;;;;;;;25.05;52.73;100224.88;5001066;28;20029;-85
2022/08/15 10:57:46;;;;;;;6.85;6.15;;;;;;;24.72;53.82;100221.66;5000205;28;20289;-86
2022/08/15 11:00:17;;;;;;;7.25;6.00;;;;;;;24.73;54.13;100229.63;4997836;28;20546;-86
2022/08/15 11:02:51;;;;;;;10.55;6.28;;;;;;;24.78;53.74;100219.03;5001195;28;20662;-88
2022/08/15 11:05:22;;;;;;;7.38;6.30;;;;;;;24.75;54.75;100230.31;4989849;28;20031;-85
2022/08/15 11:07:53;;;;;;;6.90;6.05;;;;;;;24.75;54.29;100233.03;4980462;28;20035;-86
2022/08/15 11:10:22;;;;;;;10.15;6.90;;;;;;;24.80;54.33;100225.16;4983004;28;20027;-85
2022/08/15 11:12:54;;;;;;;7.25;6.47;;;;;;;24.86;54.30;100212.66;4991023;28;20469;-84
2022/08/15 11:15:27;;;;;;;7.90;6.80;;;;;;;24.90;53.92;100226.75;4983957;28;20084;-86
2022/08/15 11:18:08;;;;;;;7.97;6.28;;;;;;;24.82;54.40;100219.50;4993270;28;20034;-87
2022/08/15 11:20:46;;;;;;;8.88;6.55;;;;;;;24.89;53.88;100227.78;4989891;28;20034;-86
2022/08/15 11:23:27;;;;;;;7.85;6.40;;;;;;;24.93;54.17;100229.09;4993397;28;20034;-85
2022/08/15 11:25:55;;;;;;;10.32;6.70;;;;;;;25.13;53.51;100226.72;4976406;28;20118;-88
2022/08/15 11:28:28;;;;;;;7.63;6.20;;;;;;;25.33;53.62;100220.50;4982942;28;20054;-87
2022/08/15 11:30:59;;;;;;;9.45;6.32;;;;;;;25.78;52.20;100226.75;4989627;28;20038;-88
2022/08/15 11:33:30;;;;;;;12.20;6.47;;;;;;;26.36;50.65;100224.00;4993809;28;20040;-85
2022/08/15 11:36:13;;;;;;;9.98;6.55;;;;;;;27.00;50.21;100218.44;5003890;28;20470;-87
2022/08/15 11:38:47;;;;;;;8.05;6.20;;;;;;;27.89;47.98;100233.22;4984469;28;20047;-86
2022/08/15 11:41:27;;;;;;;9.13;7.03;;;;;;;29.73;43.95;100212.28;4993409;28;20567;-85
2022/08/15 11:43:56;;;;;;;9.75;5.38;;;;;;;33.10;37.35;100225.13;4991813;28;20543;-86
2022/08/15 11:46:22;;;;;;;8.13;5.30;;;;;;;35.06;33.07;100226.66;4989281;28;20527;-86
2022/08/15 11:48:58;;;;;;;7.57;5.00;;;;;;;33.97;34.21;100227.00;4993795;28;20038;-86
2022/08/15 11:51:27;;;;;;;6.55;5.30;;;;;;;32.40;35.90;100241.59;4994719;28;20034;-87
2022/08/15 11:54:11;;;;;;;7.07;5.55;;;;;;;31.04;38.44;100237.34;4988354;28;20022;-86
2022/08/15 11:57:10;;;;;;;8.45;5.40;;;;;;;29.74;40.40;100249.59;4989384;28;20037;-85